Airfield :
LOGIN :

Register | Disclaimer

   EN    FR    IT 

 










Legend :    VFR   Marginal VFR   IFR   Intensive IFR   Very Intensive IFR
Visi :
Ceiling :
>= 8 km
>= 3000ft
5 to 8 km
1000 to 3000 ft
1500m to 5 km
500 to 1000 ft
800 to 1500m
200 to 500 ft
< 800m
< 200 ft
Symbols :   Thunderstorms  Fog  Heavy snow  Heavy precipitations  Wind > 20 kt
SIGMETs :     Misc.  Thunderstorms  Icing  Turbulence  Mountain Waves  Volcanic Ashes






- Airport Elevation : 19 ft
- IATA code : DJE


DTTJ - Djerba Zarzis

EXPIRED METARs :
  • 280300Z 35018KT 8000 FEW020 SCT026 17/13 Q1017 NOSIG
  • 280230Z 35018KT 6000 FEW020 SCT026 17/13 Q1017 NOSIG
  • 280200Z 35020KT 6000 FEW020 SCT026 17/13 Q1017 NOSIG
  • 272200Z 01025KT 6000 FEW023 SCT030 17/13 Q1017 NOSIG

TAF TAF DTTJ
Valid from the 28 at 00:00 until the 29 at 00:00 UTC


272300Z 2800/2824 36021KT 6000 FEW023
BECMG 2806/2808 02015KT
BECMG 2812/2814 34005KT
PROB40
TEMPO 2820/2824 21017G27KT



MET'MAP, your aeronautical weather chart ! - Copyright ORBIFLY December 2007 - Disclaimer

ORBIFLY MET'MAP TEAM :

Programming & Development : Alexandra Zaïnal
Original concept : Baudouin d'Aumeries
Technical & hardware support : Manuel Goepfert
Assistance : Marc-Olivier Méhu




SOURCES & CREDITS :

   NOAA